sensor_id;sensor_type;location;lat;lon;timestamp;P1;durP1;ratioP1;P2;durP2;ratioP2
9392;SDS011;4736;52.508;13.422;2023-07-13T00:00:27;3.63;;;3.43;;
9392;SDS011;4736;52.508;13.422;2023-07-13T00:03:31;3.90;;;3.60;;
9392;SDS011;4736;52.508;13.422;2023-07-13T00:06:36;4.73;;;4.27;;
9392;SDS011;4736;52.508;13.422;2023-07-13T00:09:39;4.50;;;4.17;;
9392;SDS011;4736;52.508;13.422;2023-07-13T00:12:43;4.63;;;4.23;;
9392;SDS011;4736;52.508;13.422;2023-07-13T00:15:47;4.00;;;3.70;;
9392;SDS011;4736;52.508;13.422;2023-07-13T00:18:52;4.63;;;4.23;;
9392;SDS011;4736;52.508;13.422;2023-07-13T00:21:55;4.93;;;3.73;;
9392;SDS011;4736;52.508;13.422;2023-07-13T00:24:58;6.50;;;3.57;;
9392;SDS011;4736;52.508;13.422;2023-07-13T00:28:01;4.87;;;4.00;;
9392;SDS011;4736;52.508;13.422;2023-07-13T00:31:05;3.60;;;3.40;;
9392;SDS011;4736;52.508;13.422;2023-07-13T00:34:11;3.70;;;3.40;;
9392;SDS011;4736;52.508;13.422;2023-07-13T00:37:14;3.50;;;3.20;;
9392;SDS011;4736;52.508;13.422;2023-07-13T00:40:18;3.00;;;2.90;;
9392;SDS011;4736;52.508;13.422;2023-07-13T00:43:21;4.10;;;3.47;;
9392;SDS011;4736;52.508;13.422;2023-07-13T00:46:26;4.47;;;3.37;;
9392;SDS011;4736;52.508;13.422;2023-07-13T00:49:33;3.53;;;3.23;;
9392;SDS011;4736;52.508;13.422;2023-07-13T00:52:40;3.00;;;3.00;;
9392;SDS011;4736;52.508;13.422;2023-07-13T00:55:46;2.70;;;2.70;;
9392;SDS011;4736;52.508;13.422;2023-07-13T00:58:51;2.90;;;2.80;;
9392;SDS011;4736;52.508;13.422;2023-07-13T01:01:55;3.33;;;3.13;;
9392;SDS011;4736;52.508;13.422;2023-07-13T01:05:00;3.23;;;3.03;;
9392;SDS011;4736;52.508;13.422;2023-07-13T01:08:04;3.00;;;2.90;;
9392;SDS011;4736;52.508;13.422;2023-07-13T01:11:07;3.00;;;2.90;;
9392;SDS011;4736;52.508;13.422;2023-07-13T01:14:10;3.47;;;3.37;;
9392;SDS011;4736;52.508;13.422;2023-07-13T01:17:14;2.63;;;2.60;;
9392;SDS011;4736;52.508;13.422;2023-07-13T01:20:19;2.90;;;2.80;;
9392;SDS011;4736;52.508;13.422;2023-07-13T01:23:23;3.30;;;3.10;;
9392;SDS011;4736;52.508;13.422;2023-07-13T01:26:27;3.27;;;3.10;;
9392;SDS011;4736;52.508;13.422;2023-07-13T01:29:31;3.47;;;3.10;;
9392;SDS011;4736;52.508;13.422;2023-07-13T01:32:35;2.90;;;2.80;;
9392;SDS011;4736;52.508;13.422;2023-07-13T01:35:39;2.80;;;2.70;;
9392;SDS011;4736;52.508;13.422;2023-07-13T01:38:43;3.03;;;2.83;;
9392;SDS011;4736;52.508;13.422;2023-07-13T01:41:48;2.90;;;2.80;;
9392;SDS011;4736;52.508;13.422;2023-07-13T01:44:51;2.63;;;2.53;;
9392;SDS011;4736;52.508;13.422;2023-07-13T01:47:54;3.00;;;2.90;;
9392;SDS011;4736;52.508;13.422;2023-07-13T01:50:57;2.60;;;2.60;;
9392;SDS011;4736;52.508;13.422;2023-07-13T01:54:02;2.93;;;2.77;;
9392;SDS011;4736;52.508;13.422;2023-07-13T01:57:05;3.03;;;2.93;;
9392;SDS011;4736;52.508;13.422;2023-07-13T02:00:09;3.03;;;2.83;;
9392;SDS011;4736;52.508;13.422;2023-07-13T02:03:15;6.73;;;4.00;;
9392;SDS011;4736;52.508;13.422;2023-07-13T02:06:19;3.23;;;3.13;;
9392;SDS011;4736;52.508;13.422;2023-07-13T02:09:24;3.90;;;3.70;;
9392;SDS011;4736;52.508;13.422;2023-07-13T02:12:27;4.13;;;3.40;;
9392;SDS011;4736;52.508;13.422;2023-07-13T02:15:30;3.07;;;2.97;;
9392;SDS011;4736;52.508;13.422;2023-07-13T02:18:35;3.50;;;3.40;;
9392;SDS011;4736;52.508;13.422;2023-07-13T02:21:38;3.60;;;3.30;;
9392;SDS011;4736;52.508;13.422;2023-07-13T02:24:43;3.40;;;3.30;;
9392;SDS011;4736;52.508;13.422;2023-07-13T02:27:46;4.03;;;3.77;;
9392;SDS011;4736;52.508;13.422;2023-07-13T02:30:49;3.40;;;3.20;;
9392;SDS011;4736;52.508;13.422;2023-07-13T02:33:54;3.30;;;3.10;;
9392;SDS011;4736;52.508;13.422;2023-07-13T02:36:57;3.63;;;3.50;;
9392;SDS011;4736;52.508;13.422;2023-07-13T02:40:02;3.77;;;3.47;;
9392;SDS011;4736;52.508;13.422;2023-07-13T02:43:09;3.40;;;3.20;;
9392;SDS011;4736;52.508;13.422;2023-07-13T02:46:12;3.40;;;3.27;;
9392;SDS011;4736;52.508;13.422;2023-07-13T02:49:17;3.17;;;3.00;;
9392;SDS011;4736;52.508;13.422;2023-07-13T02:52:21;3.23;;;3.13;;
9392;SDS011;4736;52.508;13.422;2023-07-13T02:55:25;3.70;;;3.43;;
9392;SDS011;4736;52.508;13.422;2023-07-13T02:58:28;3.47;;;3.30;;
9392;SDS011;4736;52.508;13.422;2023-07-13T03:01:31;3.37;;;3.20;;
9392;SDS011;4736;52.508;13.422;2023-07-13T03:04:36;4.80;;;4.03;;
9392;SDS011;4736;52.508;13.422;2023-07-13T03:07:40;4.67;;;4.20;;
9392;SDS011;4736;52.508;13.422;2023-07-13T03:10:44;4.60;;;4.20;;
9392;SDS011;4736;52.508;13.422;2023-07-13T03:13:48;4.70;;;4.33;;
9392;SDS011;4736;52.508;13.422;2023-07-13T03:16:51;4.27;;;3.97;;
9392;SDS011;4736;52.508;13.422;2023-07-13T03:19:54;4.13;;;3.90;;
9392;SDS011;4736;52.508;13.422;2023-07-13T03:22:58;3.63;;;3.43;;
9392;SDS011;4736;52.508;13.422;2023-07-13T03:26:03;4.80;;;4.40;;
9392;SDS011;4736;52.508;13.422;2023-07-13T03:29:08;3.70;;;3.60;;
9392;SDS011;4736;52.508;13.422;2023-07-13T03:32:11;3.90;;;3.60;;
9392;SDS011;4736;52.508;13.422;2023-07-13T03:35:15;4.13;;;3.83;;
9392;SDS011;4736;52.508;13.422;2023-07-13T03:38:18;4.23;;;3.90;;
9392;SDS011;4736;52.508;13.422;2023-07-13T03:41:23;3.80;;;3.50;;
9392;SDS011;4736;52.508;13.422;2023-07-13T03:44:26;3.53;;;3.33;;
9392;SDS011;4736;52.508;13.422;2023-07-13T03:47:30;3.60;;;3.43;;
9392;SDS011;4736;52.508;13.422;2023-07-13T03:50:33;4.93;;;3.73;;
9392;SDS011;4736;52.508;13.422;2023-07-13T03:53:37;3.90;;;3.63;;
9392;SDS011;4736;52.508;13.422;2023-07-13T03:56:43;5.73;;;3.70;;
9392;SDS011;4736;52.508;13.422;2023-07-13T03:59:46;3.77;;;3.67;;
9392;SDS011;4736;52.508;13.422;2023-07-13T04:02:50;3.80;;;3.50;;
9392;SDS011;4736;52.508;13.422;2023-07-13T04:05:53;4.00;;;3.70;;
9392;SDS011;4736;52.508;13.422;2023-07-13T04:09:01;3.83;;;3.37;;
9392;SDS011;4736;52.508;13.422;2023-07-13T04:12:08;3.60;;;3.30;;
9392;SDS011;4736;52.508;13.422;2023-07-13T04:15:12;3.43;;;3.33;;
9392;SDS011;4736;52.508;13.422;2023-07-13T04:18:15;3.63;;;3.43;;
9392;SDS011;4736;52.508;13.422;2023-07-13T04:21:18;3.40;;;3.20;;
9392;SDS011;4736;52.508;13.422;2023-07-13T04:24:21;3.10;;;3.00;;
9392;SDS011;4736;52.508;13.422;2023-07-13T04:27:26;3.60;;;3.40;;
9392;SDS011;4736;52.508;13.422;2023-07-13T04:30:30;3.23;;;3.13;;
9392;SDS011;4736;52.508;13.422;2023-07-13T04:33:33;4.07;;;3.63;;
9392;SDS011;4736;52.508;13.422;2023-07-13T04:36:36;3.37;;;3.17;;
9392;SDS011;4736;52.508;13.422;2023-07-13T04:39:39;3.30;;;3.10;;
9392;SDS011;4736;52.508;13.422;2023-07-13T04:42:44;3.20;;;3.00;;
9392;SDS011;4736;52.508;13.422;2023-07-13T04:45:47;3.77;;;3.47;;
9392;SDS011;4736;52.508;13.422;2023-07-13T04:48:50;2.90;;;2.73;;
9392;SDS011;4736;52.508;13.422;2023-07-13T04:51:55;3.37;;;3.20;;
9392;SDS011;4736;52.508;13.422;2023-07-13T04:54:58;3.70;;;3.50;;
9392;SDS011;4736;52.508;13.422;2023-07-13T04:58:04;3.60;;;3.30;;
9392;SDS011;4736;52.508;13.422;2023-07-13T05:01:07;3.90;;;3.57;;
9392;SDS011;4736;52.508;13.422;2023-07-13T05:04:12;3.23;;;3.00;;
9392;SDS011;4736;52.508;13.422;2023-07-13T05:07:15;3.80;;;3.50;;
9392;SDS011;4736;52.508;13.422;2023-07-13T05:10:18;3.57;;;3.37;;
9392;SDS011;4736;52.508;13.422;2023-07-13T05:13:23;5.20;;;3.50;;
9392;SDS011;4736;52.508;13.422;2023-07-13T05:16:30;3.60;;;3.30;;
9392;SDS011;4736;52.508;13.422;2023-07-13T05:19:34;3.07;;;2.97;;
9392;SDS011;4736;52.508;13.422;2023-07-13T05:22:37;5.00;;;3.27;;
9392;SDS011;4736;52.508;13.422;2023-07-13T05:25:41;5.13;;;3.60;;
9392;SDS011;4736;52.508;13.422;2023-07-13T05:28:45;4.83;;;3.50;;
9392;SDS011;4736;52.508;13.422;2023-07-13T05:31:49;2.97;;;2.77;;
9392;SDS011;4736;52.508;13.422;2023-07-13T05:34:52;3.07;;;2.77;;
9392;SDS011;4736;52.508;13.422;2023-07-13T05:37:55;3.60;;;3.30;;
9392;SDS011;4736;52.508;13.422;2023-07-13T05:40:59;3.73;;;3.30;;
9392;SDS011;4736;52.508;13.422;2023-07-13T05:44:07;5.20;;;3.13;;
9392;SDS011;4736;52.508;13.422;2023-07-13T05:47:10;3.10;;;2.90;;
9392;SDS011;4736;52.508;13.422;2023-07-13T05:50:15;3.40;;;3.20;;
9392;SDS011;4736;52.508;13.422;2023-07-13T05:53:18;3.03;;;2.83;;
9392;SDS011;4736;52.508;13.422;2023-07-13T05:56:21;3.93;;;3.23;;
9392;SDS011;4736;52.508;13.422;2023-07-13T05:59:27;4.10;;;3.77;;
9392;SDS011;4736;52.508;13.422;2023-07-13T06:02:33;4.10;;;3.80;;
9392;SDS011;4736;52.508;13.422;2023-07-13T06:05:36;4.30;;;3.90;;
9392;SDS011;4736;52.508;13.422;2023-07-13T06:08:41;4.20;;;3.40;;
9392;SDS011;4736;52.508;13.422;2023-07-13T06:11:44;3.90;;;3.60;;
9392;SDS011;4736;52.508;13.422;2023-07-13T06:14:48;4.40;;;4.00;;
9392;SDS011;4736;52.508;13.422;2023-07-13T06:17:52;4.90;;;4.00;;
9392;SDS011;4736;52.508;13.422;2023-07-13T06:20:55;4.07;;;3.67;;
9392;SDS011;4736;52.508;13.422;2023-07-13T06:23:58;4.77;;;3.73;;
9392;SDS011;4736;52.508;13.422;2023-07-13T06:27:01;5.60;;;3.57;;
9392;SDS011;4736;52.508;13.422;2023-07-13T06:30:06;3.73;;;3.53;;
9392;SDS011;4736;52.508;13.422;2023-07-13T06:33:10;4.03;;;3.63;;
9392;SDS011;4736;52.508;13.422;2023-07-13T06:36:14;4.17;;;3.77;;
9392;SDS011;4736;52.508;13.422;2023-07-13T06:39:17;4.37;;;4.07;;
9392;SDS011;4736;52.508;13.422;2023-07-13T06:42:20;4.27;;;3.97;;
9392;SDS011;4736;52.508;13.422;2023-07-13T06:45:25;4.20;;;3.03;;
9392;SDS011;4736;52.508;13.422;2023-07-13T06:48:28;5.97;;;3.60;;
9392;SDS011;4736;52.508;13.422;2023-07-13T06:51:31;5.70;;;3.40;;
9392;SDS011;4736;52.508;13.422;2023-07-13T06:54:34;3.03;;;2.83;;
9392;SDS011;4736;52.508;13.422;2023-07-13T06:57:37;5.60;;;3.70;;
9392;SDS011;4736;52.508;13.422;2023-07-13T07:00:42;7.30;;;3.67;;
9392;SDS011;4736;52.508;13.422;2023-07-13T07:03:46;3.53;;;3.10;;
9392;SDS011;4736;52.508;13.422;2023-07-13T07:06:50;3.60;;;3.30;;
9392;SDS011;4736;52.508;13.422;2023-07-13T07:09:53;3.50;;;3.17;;
9392;SDS011;4736;52.508;13.422;2023-07-13T07:12:56;3.50;;;3.20;;
9392;SDS011;4736;52.508;13.422;2023-07-13T07:16:00;2.87;;;2.67;;
9392;SDS011;4736;52.508;13.422;2023-07-13T07:19:04;3.97;;;3.23;;
9392;SDS011;4736;52.508;13.422;2023-07-13T07:22:07;2.43;;;2.43;;
9392;SDS011;4736;52.508;13.422;2023-07-13T07:25:10;2.80;;;2.70;;
9392;SDS011;4736;52.508;13.422;2023-07-13T07:28:14;5.40;;;2.97;;
9392;SDS011;4736;52.508;13.422;2023-07-13T07:31:23;3.23;;;2.83;;
9392;SDS011;4736;52.508;13.422;2023-07-13T07:34:29;2.87;;;2.70;;
9392;SDS011;4736;52.508;13.422;2023-07-13T07:37:36;5.87;;;2.17;;
9392;SDS011;4736;52.508;13.422;2023-07-13T07:40:42;2.40;;;2.23;;
9392;SDS011;4736;52.508;13.422;2023-07-13T07:43:48;2.43;;;2.33;;
9392;SDS011;4736;52.508;13.422;2023-07-13T07:46:53;2.70;;;2.50;;
9392;SDS011;4736;52.508;13.422;2023-07-13T07:49:56;2.37;;;2.27;;
9392;SDS011;4736;52.508;13.422;2023-07-13T07:52:59;6.90;;;2.63;;
9392;SDS011;4736;52.508;13.422;2023-07-13T07:56:03;2.27;;;2.07;;
9392;SDS011;4736;52.508;13.422;2023-07-13T07:59:26;2.20;;;2.10;;
9392;SDS011;4736;52.508;13.422;2023-07-13T08:02:51;3.37;;;2.03;;
9392;SDS011;4736;52.508;13.422;2023-07-13T08:05:57;2.57;;;2.10;;
9392;SDS011;4736;52.508;13.422;2023-07-13T08:09:20;2.20;;;2.20;;
9392;SDS011;4736;52.508;13.422;2023-07-13T08:12:24;3.30;;;2.30;;
9392;SDS011;4736;52.508;13.422;2023-07-13T08:15:30;2.50;;;2.40;;
9392;SDS011;4736;52.508;13.422;2023-07-13T08:18:34;3.10;;;2.60;;
9392;SDS011;4736;52.508;13.422;2023-07-13T08:21:37;3.00;;;2.30;;
9392;SDS011;4736;52.508;13.422;2023-07-13T08:24:40;2.80;;;2.50;;
9392;SDS011;4736;52.508;13.422;2023-07-13T08:27:44;2.03;;;2.00;;
9392;SDS011;4736;52.508;13.422;2023-07-13T08:30:48;2.60;;;2.50;;
9392;SDS011;4736;52.508;13.422;2023-07-13T08:33:52;3.50;;;2.53;;
9392;SDS011;4736;52.508;13.422;2023-07-13T08:36:55;2.50;;;2.13;;
9392;SDS011;4736;52.508;13.422;2023-07-13T08:39:58;2.37;;;2.27;;
9392;SDS011;4736;52.508;13.422;2023-07-13T08:43:01;3.00;;;2.53;;
9392;SDS011;4736;52.508;13.422;2023-07-13T08:46:06;2.60;;;2.50;;
9392;SDS011;4736;52.508;13.422;2023-07-13T08:49:16;4.40;;;2.60;;
9392;SDS011;4736;52.508;13.422;2023-07-13T08:52:26;3.20;;;2.90;;
9392;SDS011;4736;52.508;13.422;2023-07-13T08:55:35;2.60;;;2.40;;
9392;SDS011;4736;52.508;13.422;2023-07-13T08:58:40;5.80;;;2.50;;
9392;SDS011;4736;52.508;13.422;2023-07-13T09:01:47;2.87;;;2.40;;
9392;SDS011;4736;52.508;13.422;2023-07-13T09:05:04;2.87;;;2.30;;
9392;SDS011;4736;52.508;13.422;2023-07-13T09:08:19;2.30;;;2.10;;
9392;SDS011;4736;52.508;13.422;2023-07-13T09:11:43;4.23;;;2.03;;
9392;SDS011;4736;52.508;13.422;2023-07-13T09:14:53;2.43;;;2.23;;
9392;SDS011;4736;52.508;13.422;2023-07-13T09:17:59;3.43;;;2.80;;
9392;SDS011;4736;52.508;13.422;2023-07-13T09:21:09;2.73;;;2.53;;
9392;SDS011;4736;52.508;13.422;2023-07-13T09:24:25;2.63;;;2.43;;
9392;SDS011;4736;52.508;13.422;2023-07-13T09:27:33;2.33;;;2.23;;
9392;SDS011;4736;52.508;13.422;2023-07-13T09:30:45;2.20;;;2.10;;
9392;SDS011;4736;52.508;13.422;2023-07-13T09:33:52;3.07;;;2.10;;
9392;SDS011;4736;52.508;13.422;2023-07-13T09:36:57;5.70;;;3.13;;
9392;SDS011;4736;52.508;13.422;2023-07-13T09:40:01;3.03;;;2.33;;
9392;SDS011;4736;52.508;13.422;2023-07-13T09:43:07;5.63;;;2.50;;
9392;SDS011;4736;52.508;13.422;2023-07-13T09:46:20;2.93;;;2.73;;
9392;SDS011;4736;52.508;13.422;2023-07-13T09:49:24;3.73;;;2.90;;
9392;SDS011;4736;52.508;13.422;2023-07-13T09:52:38;3.10;;;2.90;;
9392;SDS011;4736;52.508;13.422;2023-07-13T09:55:44;3.40;;;3.20;;
9392;SDS011;4736;52.508;13.422;2023-07-13T09:58:54;3.80;;;3.60;;
9392;SDS011;4736;52.508;13.422;2023-07-13T10:01:58;4.10;;;3.90;;
9392;SDS011;4736;52.508;13.422;2023-07-13T10:05:03;4.50;;;3.83;;
9392;SDS011;4736;52.508;13.422;2023-07-13T10:11:39;5.50;;;3.80;;
9392;SDS011;4736;52.508;13.422;2023-07-13T10:14:42;5.70;;;3.70;;
9392;SDS011;4736;52.508;13.422;2023-07-13T10:17:46;5.40;;;4.10;;
9392;SDS011;4736;52.508;13.422;2023-07-13T10:20:50;4.50;;;3.97;;
9392;SDS011;4736;52.508;13.422;2023-07-13T10:24:16;4.90;;;4.50;;
9392;SDS011;4736;52.508;13.422;2023-07-13T10:27:23;4.57;;;4.27;;
9392;SDS011;4736;52.508;13.422;2023-07-13T10:30:35;5.27;;;3.97;;
9392;SDS011;4736;52.508;13.422;2023-07-13T10:33:42;3.07;;;2.93;;
9392;SDS011;4736;52.508;13.422;2023-07-13T10:36:47;3.60;;;3.30;;
9392;SDS011;4736;52.508;13.422;2023-07-13T10:39:52;3.80;;;3.60;;
9392;SDS011;4736;52.508;13.422;2023-07-13T10:42:58;7.07;;;3.83;;
9392;SDS011;4736;52.508;13.422;2023-07-13T10:46:07;3.00;;;2.90;;
9392;SDS011;4736;52.508;13.422;2023-07-13T10:49:13;3.13;;;2.93;;
9392;SDS011;4736;52.508;13.422;2023-07-13T10:55:54;3.80;;;3.47;;
9392;SDS011;4736;52.508;13.422;2023-07-13T10:59:01;3.43;;;3.07;;
9392;SDS011;4736;52.508;13.422;2023-07-13T11:02:21;4.03;;;3.57;;
9392;SDS011;4736;52.508;13.422;2023-07-13T11:05:30;3.90;;;3.60;;
9392;SDS011;4736;52.508;13.422;2023-07-13T11:08:36;7.13;;;3.93;;
9392;SDS011;4736;52.508;13.422;2023-07-13T11:11:42;4.23;;;3.83;;
9392;SDS011;4736;52.508;13.422;2023-07-13T11:15:00;4.30;;;3.80;;
9392;SDS011;4736;52.508;13.422;2023-07-13T11:18:10;3.20;;;3.00;;
9392;SDS011;4736;52.508;13.422;2023-07-13T11:21:26;3.20;;;3.10;;
9392;SDS011;4736;52.508;13.422;2023-07-13T11:24:47;4.07;;;3.63;;
9392;SDS011;4736;52.508;13.422;2023-07-13T11:28:06;3.00;;;2.90;;
9392;SDS011;4736;52.508;13.422;2023-07-13T11:31:18;4.30;;;3.60;;
9392;SDS011;4736;52.508;13.422;2023-07-13T11:34:26;3.93;;;3.37;;
9392;SDS011;4736;52.508;13.422;2023-07-13T11:37:32;3.77;;;3.57;;
9392;SDS011;4736;52.508;13.422;2023-07-13T11:40:36;3.90;;;3.00;;
9392;SDS011;4736;52.508;13.422;2023-07-13T11:43:42;5.63;;;3.67;;
9392;SDS011;4736;52.508;13.422;2023-07-13T11:46:47;4.30;;;3.33;;
9392;SDS011;4736;52.508;13.422;2023-07-13T11:49:55;5.07;;;3.30;;
9392;SDS011;4736;52.508;13.422;2023-07-13T11:52:59;3.93;;;3.63;;
9392;SDS011;4736;52.508;13.422;2023-07-13T11:56:02;3.93;;;3.53;;
9392;SDS011;4736;52.508;13.422;2023-07-13T11:59:10;5.37;;;3.33;;
9392;SDS011;4736;52.508;13.422;2023-07-13T12:02:17;3.90;;;3.20;;
9392;SDS011;4736;52.508;13.422;2023-07-13T12:05:27;3.03;;;2.83;;
9392;SDS011;4736;52.508;13.422;2023-07-13T12:08:37;3.10;;;2.90;;
9392;SDS011;4736;52.508;13.422;2023-07-13T12:11:42;4.33;;;3.07;;
9392;SDS011;4736;52.508;13.422;2023-07-13T12:14:50;3.30;;;3.00;;
9392;SDS011;4736;52.508;13.422;2023-07-13T12:17:53;3.97;;;3.20;;
9392;SDS011;4736;52.508;13.422;2023-07-13T12:20:58;4.00;;;3.50;;
9392;SDS011;4736;52.508;13.422;2023-07-13T12:24:02;3.57;;;3.37;;
9392;SDS011;4736;52.508;13.422;2023-07-13T12:27:15;4.07;;;3.70;;
9392;SDS011;4736;52.508;13.422;2023-07-13T12:30:27;3.60;;;3.30;;
9392;SDS011;4736;52.508;13.422;2023-07-13T12:33:33;3.10;;;3.00;;
9392;SDS011;4736;52.508;13.422;2023-07-13T12:36:41;2.90;;;2.80;;
9392;SDS011;4736;52.508;13.422;2023-07-13T12:39:51;3.43;;;2.97;;
9392;SDS011;4736;52.508;13.422;2023-07-13T12:42:54;2.90;;;2.80;;
9392;SDS011;4736;52.508;13.422;2023-07-13T12:46:00;3.37;;;3.13;;
9392;SDS011;4736;52.508;13.422;2023-07-13T12:49:07;3.57;;;3.37;;
9392;SDS011;4736;52.508;13.422;2023-07-13T12:52:20;3.13;;;2.90;;
9392;SDS011;4736;52.508;13.422;2023-07-13T12:55:27;3.20;;;3.00;;
9392;SDS011;4736;52.508;13.422;2023-07-13T12:58:36;4.77;;;2.80;;
9392;SDS011;4736;52.508;13.422;2023-07-13T13:01:42;3.33;;;3.00;;
9392;SDS011;4736;52.508;13.422;2023-07-13T13:04:45;3.03;;;2.40;;
9392;SDS011;4736;52.508;13.422;2023-07-13T13:07:50;3.10;;;2.90;;
9392;SDS011;4736;52.508;13.422;2023-07-13T13:10:53;2.80;;;2.70;;
9392;SDS011;4736;52.508;13.422;2023-07-13T13:13:56;2.77;;;2.60;;
9392;SDS011;4736;52.508;13.422;2023-07-13T13:17:02;3.00;;;2.90;;
9392;SDS011;4736;52.508;13.422;2023-07-13T13:20:11;2.73;;;2.53;;
9392;SDS011;4736;52.508;13.422;2023-07-13T13:23:19;3.00;;;2.70;;
9392;SDS011;4736;52.508;13.422;2023-07-13T13:26:24;2.80;;;2.53;;
9392;SDS011;4736;52.508;13.422;2023-07-13T13:29:27;2.40;;;2.40;;
9392;SDS011;4736;52.508;13.422;2023-07-13T13:32:35;3.20;;;2.83;;
9392;SDS011;4736;52.508;13.422;2023-07-13T13:35:38;3.53;;;3.03;;
9392;SDS011;4736;52.508;13.422;2023-07-13T13:38:42;2.87;;;2.57;;
9392;SDS011;4736;52.508;13.422;2023-07-13T13:41:46;2.40;;;2.30;;
9392;SDS011;4736;52.508;13.422;2023-07-13T13:44:49;2.83;;;2.40;;
9392;SDS011;4736;52.508;13.422;2023-07-13T13:47:54;2.70;;;2.20;;
9392;SDS011;4736;52.508;13.422;2023-07-13T13:50:58;2.37;;;2.27;;
9392;SDS011;4736;52.508;13.422;2023-07-13T13:54:02;4.47;;;2.40;;
9392;SDS011;4736;52.508;13.422;2023-07-13T13:57:05;4.23;;;2.70;;
9392;SDS011;4736;52.508;13.422;2023-07-13T14:00:10;5.30;;;2.70;;
9392;SDS011;4736;52.508;13.422;2023-07-13T14:03:18;2.83;;;2.73;;
9392;SDS011;4736;52.508;13.422;2023-07-13T14:06:23;2.60;;;2.50;;
9392;SDS011;4736;52.508;13.422;2023-07-13T14:09:26;2.50;;;2.40;;
9392;SDS011;4736;52.508;13.422;2023-07-13T14:12:29;4.03;;;2.57;;
9392;SDS011;4736;52.508;13.422;2023-07-13T14:15:32;2.67;;;2.47;;
9392;SDS011;4736;52.508;13.422;2023-07-13T14:18:37;2.40;;;1.90;;
9392;SDS011;4736;52.508;13.422;2023-07-13T14:21:41;2.63;;;2.40;;
9392;SDS011;4736;52.508;13.422;2023-07-13T14:24:44;5.60;;;2.20;;
9392;SDS011;4736;52.508;13.422;2023-07-13T14:27:48;10.20;;;2.60;;
9392;SDS011;4736;52.508;13.422;2023-07-13T14:30:57;2.40;;;2.20;;
9392;SDS011;4736;52.508;13.422;2023-07-13T14:34:01;2.57;;;2.37;;
9392;SDS011;4736;52.508;13.422;2023-07-13T14:37:04;2.50;;;2.30;;
9392;SDS011;4736;52.508;13.422;2023-07-13T14:40:12;2.40;;;2.23;;
9392;SDS011;4736;52.508;13.422;2023-07-13T14:43:16;2.33;;;2.23;;
9392;SDS011;4736;52.508;13.422;2023-07-13T14:46:23;3.80;;;2.43;;
9392;SDS011;4736;52.508;13.422;2023-07-13T14:49:32;4.10;;;2.63;;
9392;SDS011;4736;52.508;13.422;2023-07-13T14:52:38;2.47;;;2.47;;
9392;SDS011;4736;52.508;13.422;2023-07-13T14:55:41;2.53;;;2.27;;
9392;SDS011;4736;52.508;13.422;2023-07-13T14:58:44;2.60;;;2.50;;
9392;SDS011;4736;52.508;13.422;2023-07-13T15:01:48;2.10;;;2.00;;
9392;SDS011;4736;52.508;13.422;2023-07-13T15:04:55;2.97;;;2.60;;
9392;SDS011;4736;52.508;13.422;2023-07-13T15:07:59;2.50;;;2.40;;
9392;SDS011;4736;52.508;13.422;2023-07-13T15:11:04;2.40;;;1.93;;
9392;SDS011;4736;52.508;13.422;2023-07-13T15:14:07;2.07;;;2.00;;
9392;SDS011;4736;52.508;13.422;2023-07-13T15:17:24;2.40;;;2.30;;
9392;SDS011;4736;52.508;13.422;2023-07-13T15:20:32;2.60;;;2.40;;
9392;SDS011;4736;52.508;13.422;2023-07-13T15:23:37;1.93;;;1.83;;
9392;SDS011;4736;52.508;13.422;2023-07-13T15:26:41;2.23;;;2.10;;
9392;SDS011;4736;52.508;13.422;2023-07-13T15:29:48;1.90;;;1.90;;
9392;SDS011;4736;52.508;13.422;2023-07-13T15:32:52;2.00;;;1.80;;
9392;SDS011;4736;52.508;13.422;2023-07-13T15:35:57;2.07;;;2.00;;
9392;SDS011;4736;52.508;13.422;2023-07-13T15:39:00;2.17;;;1.97;;
9392;SDS011;4736;52.508;13.422;2023-07-13T15:42:04;2.20;;;2.00;;
9392;SDS011;4736;52.508;13.422;2023-07-13T15:45:14;5.23;;;2.10;;
9392;SDS011;4736;52.508;13.422;2023-07-13T15:48:20;2.30;;;2.10;;
9392;SDS011;4736;52.508;13.422;2023-07-13T15:51:26;1.77;;;1.73;;
9392;SDS011;4736;52.508;13.422;2023-07-13T15:54:31;4.43;;;2.30;;
9392;SDS011;4736;52.508;13.422;2023-07-13T15:57:34;4.00;;;2.07;;
9392;SDS011;4736;52.508;13.422;2023-07-13T16:00:39;3.47;;;2.20;;
9392;SDS011;4736;52.508;13.422;2023-07-13T16:03:43;2.40;;;1.90;;
9392;SDS011;4736;52.508;13.422;2023-07-13T16:06:48;3.17;;;2.40;;
9392;SDS011;4736;52.508;13.422;2023-07-13T16:09:52;2.23;;;2.13;;
9392;SDS011;4736;52.508;13.422;2023-07-13T16:12:55;2.17;;;2.10;;
9392;SDS011;4736;52.508;13.422;2023-07-13T16:15:58;2.83;;;1.97;;
9392;SDS011;4736;52.508;13.422;2023-07-13T16:19:03;2.47;;;2.20;;
9392;SDS011;4736;52.508;13.422;2023-07-13T16:22:11;2.80;;;2.00;;
9392;SDS011;4736;52.508;13.422;2023-07-13T16:25:18;2.30;;;2.20;;
9392;SDS011;4736;52.508;13.422;2023-07-13T16:28:24;2.17;;;2.00;;
9392;SDS011;4736;52.508;13.422;2023-07-13T16:31:30;2.10;;;1.93;;
9392;SDS011;4736;52.508;13.422;2023-07-13T16:34:35;2.67;;;2.07;;
9392;SDS011;4736;52.508;13.422;2023-07-13T16:37:43;2.33;;;2.23;;
9392;SDS011;4736;52.508;13.422;2023-07-13T16:41:03;3.90;;;2.50;;
9392;SDS011;4736;52.508;13.422;2023-07-13T16:44:16;2.20;;;2.00;;
9392;SDS011;4736;52.508;13.422;2023-07-13T16:47:22;4.43;;;2.30;;
9392;SDS011;4736;52.508;13.422;2023-07-13T16:50:29;2.27;;;2.13;;
9392;SDS011;4736;52.508;13.422;2023-07-13T16:53:34;2.43;;;2.20;;
9392;SDS011;4736;52.508;13.422;2023-07-13T16:56:38;2.40;;;2.20;;
9392;SDS011;4736;52.508;13.422;2023-07-13T16:59:42;2.07;;;1.97;;
9392;SDS011;4736;52.508;13.422;2023-07-13T17:02:47;4.17;;;1.90;;
9392;SDS011;4736;52.508;13.422;2023-07-13T17:05:52;3.63;;;2.40;;
9392;SDS011;4736;52.508;13.422;2023-07-13T17:08:57;2.00;;;1.90;;
9392;SDS011;4736;52.508;13.422;2023-07-13T17:12:03;10.77;;;3.00;;
9392;SDS011;4736;52.508;13.422;2023-07-13T17:15:10;10.33;;;3.10;;
9392;SDS011;4736;52.508;13.422;2023-07-13T17:18:14;10.10;;;2.87;;
9392;SDS011;4736;52.508;13.422;2023-07-13T17:21:17;10.83;;;3.13;;
9392;SDS011;4736;52.508;13.422;2023-07-13T17:24:23;4.97;;;2.60;;
9392;SDS011;4736;52.508;13.422;2023-07-13T17:27:27;3.73;;;2.87;;
9392;SDS011;4736;52.508;13.422;2023-07-13T17:30:31;2.80;;;2.70;;
9392;SDS011;4736;52.508;13.422;2023-07-13T17:33:34;5.90;;;2.57;;
9392;SDS011;4736;52.508;13.422;2023-07-13T17:36:40;4.87;;;3.07;;
9392;SDS011;4736;52.508;13.422;2023-07-13T17:39:45;2.90;;;2.70;;
9392;SDS011;4736;52.508;13.422;2023-07-13T17:42:49;3.03;;;2.80;;
9392;SDS011;4736;52.508;13.422;2023-07-13T17:45:56;3.00;;;2.80;;
9392;SDS011;4736;52.508;13.422;2023-07-13T17:49:00;2.67;;;2.47;;
9392;SDS011;4736;52.508;13.422;2023-07-13T17:52:07;3.17;;;2.97;;
9392;SDS011;4736;52.508;13.422;2023-07-13T17:55:14;2.80;;;2.60;;
9392;SDS011;4736;52.508;13.422;2023-07-13T17:58:18;3.10;;;2.73;;
9392;SDS011;4736;52.508;13.422;2023-07-13T18:01:22;2.70;;;2.57;;
9392;SDS011;4736;52.508;13.422;2023-07-13T18:04:28;4.73;;;3.20;;
9392;SDS011;4736;52.508;13.422;2023-07-13T18:07:31;4.23;;;3.73;;
9392;SDS011;4736;52.508;13.422;2023-07-13T18:10:35;4.73;;;3.53;;
9392;SDS011;4736;52.508;13.422;2023-07-13T18:13:38;3.57;;;3.27;;
9392;SDS011;4736;52.508;13.422;2023-07-13T18:16:46;3.23;;;3.03;;
9392;SDS011;4736;52.508;13.422;2023-07-13T18:19:54;2.93;;;2.70;;
9392;SDS011;4736;52.508;13.422;2023-07-13T18:22:58;3.03;;;2.80;;
9392;SDS011;4736;52.508;13.422;2023-07-13T18:26:04;2.90;;;2.80;;
9392;SDS011;4736;52.508;13.422;2023-07-13T18:29:13;3.13;;;2.93;;
9392;SDS011;4736;52.508;13.422;2023-07-13T18:32:17;3.03;;;2.80;;
9392;SDS011;4736;52.508;13.422;2023-07-13T18:35:25;3.67;;;2.80;;
9392;SDS011;4736;52.508;13.422;2023-07-13T18:38:30;3.10;;;2.90;;
9392;SDS011;4736;52.508;13.422;2023-07-13T18:41:35;3.30;;;3.20;;
9392;SDS011;4736;52.508;13.422;2023-07-13T18:44:40;3.40;;;3.13;;
9392;SDS011;4736;52.508;13.422;2023-07-13T18:47:44;3.47;;;3.23;;
9392;SDS011;4736;52.508;13.422;2023-07-13T18:50:50;3.20;;;3.00;;
9392;SDS011;4736;52.508;13.422;2023-07-13T18:53:54;3.33;;;3.23;;
9392;SDS011;4736;52.508;13.422;2023-07-13T18:57:01;3.10;;;3.00;;
9392;SDS011;4736;52.508;13.422;2023-07-13T19:00:10;3.17;;;3.00;;